Decoded Metar for KGOK (GUTHRIE in OK, USA) (IATA:GOK) | Meteo·Mobile Aviation Weather
aviador You're here:

KGOK Decoded Metar

GUTHRIE in OK, USA
Report Time2018-11-19 02:53:00
UTC Time2018-11-19 03:29:22
Flight Rules mvfr MVFR
Wind330° at 03 kt
W.Decomp.*RWY 34: 2.9 kt HW 0.9 kt LCW
W.Rank330° ranks 21
Current wind is below 330° avg. (6.9)
Visibility8047 m
Phenomena:Mist
Clouds:Overcast 015 Hf
Expected CloudBase > 800 ft AGL from Temp-Dew spread
Ceiling1,500 ft
Temp-1°C (ISA -14)
Dew Point-3°C (86% RH)
AAT-4.5°C
QNH1024 hPa
Density Alt-938 ft
Elevation1,063 ft
Report Wrong Elevation
Raw Report
KGOK 190253Z AUTO 33003KT 5SM BR OVC015 M01/M03 A3023 RMK AO2
SLP249 T10061028 56006=

Extra information for KGOK:More info

Metar Taf Metar & Taf Last 4 Metars F.Rules Stats Wind Profile Meteogram Temp Stats Airport Information Weather charts Add Link Nearby VenuesMetar ALERT Operation Metar Decoded Social comments

AIRNAV info for KGOK